sensor_id;sensor_type;location;lat;lon;timestamp;P1;durP1;ratioP1;P2;durP2;ratioP2
18997;SDS011;9632;51.018;4.284;2023-02-03T00:00:45;12.80;;;3.30;;
18997;SDS011;9632;51.018;4.284;2023-02-03T00:03:11;15.27;;;4.03;;
18997;SDS011;9632;51.018;4.284;2023-02-03T00:05:37;11.90;;;3.20;;
18997;SDS011;9632;51.018;4.284;2023-02-03T00:08:04;14.40;;;4.40;;
18997;SDS011;9632;51.018;4.284;2023-02-03T00:10:32;19.48;;;3.90;;
18997;SDS011;9632;51.018;4.284;2023-02-03T00:13:01;16.23;;;3.90;;
18997;SDS011;9632;51.018;4.284;2023-02-03T00:15:27;14.70;;;3.72;;
18997;SDS011;9632;51.018;4.284;2023-02-03T00:17:53;10.65;;;3.47;;
18997;SDS011;9632;51.018;4.284;2023-02-03T00:20:18;16.05;;;3.78;;
18997;SDS011;9632;51.018;4.284;2023-02-03T00:22:44;14.70;;;3.30;;
18997;SDS011;9632;51.018;4.284;2023-02-03T00:25:09;12.02;;;3.30;;
18997;SDS011;9632;51.018;4.284;2023-02-03T00:27:35;16.95;;;3.40;;
18997;SDS011;9632;51.018;4.284;2023-02-03T00:30:01;15.00;;;3.08;;
18997;SDS011;9632;51.018;4.284;2023-02-03T00:32:27;13.88;;;3.00;;
18997;SDS011;9632;51.018;4.284;2023-02-03T00:34:53;14.52;;;2.55;;
18997;SDS011;9632;51.018;4.284;2023-02-03T00:37:18;14.05;;;2.78;;
18997;SDS011;9632;51.018;4.284;2023-02-03T00:39:44;11.57;;;2.63;;
18997;SDS011;9632;51.018;4.284;2023-02-03T00:42:10;15.05;;;3.17;;
18997;SDS011;9632;51.018;4.284;2023-02-03T00:44:35;12.45;;;3.20;;
18997;SDS011;9632;51.018;4.284;2023-02-03T00:47:01;12.13;;;2.55;;
18997;SDS011;9632;51.018;4.284;2023-02-03T00:49:26;15.38;;;2.72;;
18997;SDS011;9632;51.018;4.284;2023-02-03T00:51:52;9.32;;;2.67;;
18997;SDS011;9632;51.018;4.284;2023-02-03T00:54:18;15.57;;;2.60;;
18997;SDS011;9632;51.018;4.284;2023-02-03T00:56:43;12.02;;;2.83;;
18997;SDS011;9632;51.018;4.284;2023-02-03T00:59:09;17.38;;;2.53;;
18997;SDS011;9632;51.018;4.284;2023-02-03T01:01:35;16.20;;;2.65;;
18997;SDS011;9632;51.018;4.284;2023-02-03T01:04:01;18.55;;;2.47;;
18997;SDS011;9632;51.018;4.284;2023-02-03T01:06:27;17.17;;;2.55;;
18997;SDS011;9632;51.018;4.284;2023-02-03T01:08:54;17.20;;;2.17;;
18997;SDS011;9632;51.018;4.284;2023-02-03T01:11:20;14.00;;;2.20;;
18997;SDS011;9632;51.018;4.284;2023-02-03T01:13:47;12.88;;;2.38;;
18997;SDS011;9632;51.018;4.284;2023-02-03T01:16:14;13.48;;;2.15;;
18997;SDS011;9632;51.018;4.284;2023-02-03T01:18:41;17.25;;;2.63;;
18997;SDS011;9632;51.018;4.284;2023-02-03T01:21:08;10.57;;;2.13;;
18997;SDS011;9632;51.018;4.284;2023-02-03T01:23:39;14.82;;;2.05;;
18997;SDS011;9632;51.018;4.284;2023-02-03T01:26:06;12.35;;;2.42;;
18997;SDS011;9632;51.018;4.284;2023-02-03T01:28:33;12.50;;;1.85;;
18997;SDS011;9632;51.018;4.284;2023-02-03T01:34:03;12.98;;;2.22;;
18997;SDS011;9632;51.018;4.284;2023-02-03T01:36:30;13.82;;;2.00;;
18997;SDS011;9632;51.018;4.284;2023-02-03T01:38:58;14.57;;;2.30;;
18997;SDS011;9632;51.018;4.284;2023-02-03T01:41:25;16.58;;;2.30;;
18997;SDS011;9632;51.018;4.284;2023-02-03T01:43:54;13.77;;;2.40;;
18997;SDS011;9632;51.018;4.284;2023-02-03T01:48:53;8.02;;;1.75;;
18997;SDS011;9632;51.018;4.284;2023-02-03T01:51:41;12.75;;;1.98;;
18997;SDS011;9632;51.018;4.284;2023-02-03T01:54:09;13.57;;;2.05;;
18997;SDS011;9632;51.018;4.284;2023-02-03T01:56:39;10.60;;;2.10;;
18997;SDS011;9632;51.018;4.284;2023-02-03T01:59:09;10.60;;;1.85;;
18997;SDS011;9632;51.018;4.284;2023-02-03T02:01:35;19.90;;;2.03;;
18997;SDS011;9632;51.018;4.284;2023-02-03T02:04:01;14.20;;;2.30;;
18997;SDS011;9632;51.018;4.284;2023-02-03T02:06:28;9.77;;;1.83;;
18997;SDS011;9632;51.018;4.284;2023-02-03T02:08:54;11.57;;;2.00;;
18997;SDS011;9632;51.018;4.284;2023-02-03T02:11:25;9.10;;;1.90;;
18997;SDS011;9632;51.018;4.284;2023-02-03T02:13:51;18.00;;;2.50;;
18997;SDS011;9632;51.018;4.284;2023-02-03T02:16:35;11.35;;;1.70;;
18997;SDS011;9632;51.018;4.284;2023-02-03T02:19:34;11.68;;;1.77;;
18997;SDS011;9632;51.018;4.284;2023-02-03T02:36:16;12.65;;;1.73;;
18997;SDS011;9632;51.018;4.284;2023-02-03T02:44:16;8.55;;;1.10;;
18997;SDS011;9632;51.018;4.284;2023-02-03T02:46:58;10.52;;;1.88;;
18997;SDS011;9632;51.018;4.284;2023-02-03T02:51:54;9.50;;;1.60;;
18997;SDS011;9632;51.018;4.284;2023-02-03T02:54:24;10.52;;;1.52;;
18997;SDS011;9632;51.018;4.284;2023-02-03T02:56:52;10.02;;;1.50;;
18997;SDS011;9632;51.018;4.284;2023-02-03T02:59:21;9.45;;;1.38;;
18997;SDS011;9632;51.018;4.284;2023-02-03T03:01:47;10.00;;;1.70;;
18997;SDS011;9632;51.018;4.284;2023-02-03T03:04:13;7.57;;;1.30;;
18997;SDS011;9632;51.018;4.284;2023-02-03T03:06:48;11.02;;;1.40;;
18997;SDS011;9632;51.018;4.284;2023-02-03T03:09:24;12.00;;;1.33;;
18997;SDS011;9632;51.018;4.284;2023-02-03T03:12:09;9.25;;;1.75;;
18997;SDS011;9632;51.018;4.284;2023-02-03T03:14:36;8.65;;;1.73;;
18997;SDS011;9632;51.018;4.284;2023-02-03T03:17:06;11.38;;;2.05;;
18997;SDS011;9632;51.018;4.284;2023-02-03T03:19:38;10.45;;;1.98;;
18997;SDS011;9632;51.018;4.284;2023-02-03T03:22:08;10.00;;;1.40;;
18997;SDS011;9632;51.018;4.284;2023-02-03T03:24:41;12.20;;;1.80;;
18997;SDS011;9632;51.018;4.284;2023-02-03T03:30:05;9.50;;;1.50;;
18997;SDS011;9632;51.018;4.284;2023-02-03T03:32:35;10.43;;;1.50;;
18997;SDS011;9632;51.018;4.284;2023-02-03T03:35:02;8.70;;;1.75;;
18997;SDS011;9632;51.018;4.284;2023-02-03T03:37:46;11.27;;;1.35;;
18997;SDS011;9632;51.018;4.284;2023-02-03T03:40:26;11.63;;;1.55;;
18997;SDS011;9632;51.018;4.284;2023-02-03T03:42:58;9.40;;;1.63;;
18997;SDS011;9632;51.018;4.284;2023-02-03T03:49:02;11.73;;;1.50;;
18997;SDS011;9632;51.018;4.284;2023-02-03T03:51:14;9.73;;;1.15;;
18997;SDS011;9632;51.018;4.284;2023-02-03T03:53:46;7.90;;;1.50;;
18997;SDS011;9632;51.018;4.284;2023-02-03T03:56:16;13.93;;;2.05;;
18997;SDS011;9632;51.018;4.284;2023-02-03T03:58:55;8.93;;;1.50;;
18997;SDS011;9632;51.018;4.284;2023-02-03T04:01:25;10.68;;;1.27;;
18997;SDS011;9632;51.018;4.284;2023-02-03T04:03:53;12.15;;;1.58;;
18997;SDS011;9632;51.018;4.284;2023-02-03T04:06:22;8.63;;;1.50;;
18997;SDS011;9632;51.018;4.284;2023-02-03T04:08:48;8.30;;;1.40;;
18997;SDS011;9632;51.018;4.284;2023-02-03T04:11:14;6.35;;;0.93;;
18997;SDS011;9632;51.018;4.284;2023-02-03T04:13:59;7.85;;;1.38;;
18997;SDS011;9632;51.018;4.284;2023-02-03T04:16:25;12.88;;;1.65;;
18997;SDS011;9632;51.018;4.284;2023-02-03T04:18:51;9.15;;;1.27;;
18997;SDS011;9632;51.018;4.284;2023-02-03T04:21:16;8.68;;;1.35;;
18997;SDS011;9632;51.018;4.284;2023-02-03T04:23:42;9.57;;;1.10;;
18997;SDS011;9632;51.018;4.284;2023-02-03T04:26:08;5.68;;;1.23;;
18997;SDS011;9632;51.018;4.284;2023-02-03T04:28:33;7.68;;;1.25;;
18997;SDS011;9632;51.018;4.284;2023-02-03T04:31:02;10.35;;;1.20;;
18997;SDS011;9632;51.018;4.284;2023-02-03T04:33:28;5.00;;;1.00;;
18997;SDS011;9632;51.018;4.284;2023-02-03T04:35:54;6.43;;;1.42;;
18997;SDS011;9632;51.018;4.284;2023-02-03T04:38:19;8.27;;;1.30;;
18997;SDS011;9632;51.018;4.284;2023-02-03T04:40:45;8.93;;;1.23;;
18997;SDS011;9632;51.018;4.284;2023-02-03T04:43:11;5.20;;;1.13;;
18997;SDS011;9632;51.018;4.284;2023-02-03T04:45:38;8.27;;;1.10;;
18997;SDS011;9632;51.018;4.284;2023-02-03T04:48:03;4.35;;;1.00;;
18997;SDS011;9632;51.018;4.284;2023-02-03T04:50:29;5.53;;;0.85;;
18997;SDS011;9632;51.018;4.284;2023-02-03T04:52:56;6.97;;;1.30;;
18997;SDS011;9632;51.018;4.284;2023-02-03T04:55:24;7.82;;;1.38;;
18997;SDS011;9632;51.018;4.284;2023-02-03T04:57:54;7.68;;;1.45;;
18997;SDS011;9632;51.018;4.284;2023-02-03T05:00:20;9.40;;;0.82;;
18997;SDS011;9632;51.018;4.284;2023-02-03T05:02:46;7.07;;;1.05;;
18997;SDS011;9632;51.018;4.284;2023-02-03T05:05:11;6.07;;;0.77;;
18997;SDS011;9632;51.018;4.284;2023-02-03T05:07:37;5.85;;;0.90;;
18997;SDS011;9632;51.018;4.284;2023-02-03T05:10:03;5.72;;;0.95;;
18997;SDS011;9632;51.018;4.284;2023-02-03T05:12:28;8.82;;;1.15;;
18997;SDS011;9632;51.018;4.284;2023-02-03T05:14:54;7.97;;;1.08;;
18997;SDS011;9632;51.018;4.284;2023-02-03T05:17:20;4.68;;;1.23;;
18997;SDS011;9632;51.018;4.284;2023-02-03T05:19:45;7.75;;;1.15;;
18997;SDS011;9632;51.018;4.284;2023-02-03T05:22:11;6.63;;;1.23;;
18997;SDS011;9632;51.018;4.284;2023-02-03T05:24:37;7.38;;;1.27;;
18997;SDS011;9632;51.018;4.284;2023-02-03T05:27:02;10.15;;;1.20;;
18997;SDS011;9632;51.018;4.284;2023-02-03T05:29:28;9.55;;;1.33;;
18997;SDS011;9632;51.018;4.284;2023-02-03T05:31:54;5.88;;;0.90;;
18997;SDS011;9632;51.018;4.284;2023-02-03T05:34:19;5.93;;;1.10;;
18997;SDS011;9632;51.018;4.284;2023-02-03T05:36:45;6.82;;;1.17;;
18997;SDS011;9632;51.018;4.284;2023-02-03T05:39:11;6.22;;;0.95;;
18997;SDS011;9632;51.018;4.284;2023-02-03T05:41:36;8.05;;;1.00;;
18997;SDS011;9632;51.018;4.284;2023-02-03T05:44:18;5.78;;;1.10;;
18997;SDS011;9632;51.018;4.284;2023-02-03T05:46:48;7.22;;;1.10;;
18997;SDS011;9632;51.018;4.284;2023-02-03T05:49:14;4.07;;;1.00;;
18997;SDS011;9632;51.018;4.284;2023-02-03T05:51:40;9.70;;;1.50;;
18997;SDS011;9632;51.018;4.284;2023-02-03T05:54:06;5.70;;;1.23;;
18997;SDS011;9632;51.018;4.284;2023-02-03T05:56:32;7.25;;;1.00;;
18997;SDS011;9632;51.018;4.284;2023-02-03T05:58:58;8.27;;;1.30;;
18997;SDS011;9632;51.018;4.284;2023-02-03T06:01:23;7.07;;;0.98;;
18997;SDS011;9632;51.018;4.284;2023-02-03T06:03:49;5.50;;;1.40;;
18997;SDS011;9632;51.018;4.284;2023-02-03T06:06:15;5.55;;;1.20;;
18997;SDS011;9632;51.018;4.284;2023-02-03T06:08:41;9.82;;;1.50;;
18997;SDS011;9632;51.018;4.284;2023-02-03T06:11:07;8.38;;;1.48;;
18997;SDS011;9632;51.018;4.284;2023-02-03T06:13:34;8.48;;;1.15;;
18997;SDS011;9632;51.018;4.284;2023-02-03T06:15:59;5.80;;;1.00;;
18997;SDS011;9632;51.018;4.284;2023-02-03T06:18:25;8.73;;;1.65;;
18997;SDS011;9632;51.018;4.284;2023-02-03T06:20:51;3.90;;;0.90;;
18997;SDS011;9632;51.018;4.284;2023-02-03T06:23:16;9.80;;;1.40;;
18997;SDS011;9632;51.018;4.284;2023-02-03T06:25:43;12.57;;;1.77;;
18997;SDS011;9632;51.018;4.284;2023-02-03T06:28:09;7.10;;;0.90;;
18997;SDS011;9632;51.018;4.284;2023-02-03T06:30:35;6.18;;;1.10;;
18997;SDS011;9632;51.018;4.284;2023-02-03T06:33:01;7.18;;;1.13;;
18997;SDS011;9632;51.018;4.284;2023-02-03T06:35:26;9.07;;;1.15;;
18997;SDS011;9632;51.018;4.284;2023-02-03T06:37:52;4.03;;;0.88;;
18997;SDS011;9632;51.018;4.284;2023-02-03T06:40:18;6.05;;;1.20;;
18997;SDS011;9632;51.018;4.284;2023-02-03T06:42:44;7.22;;;1.20;;
18997;SDS011;9632;51.018;4.284;2023-02-03T06:45:11;7.82;;;1.40;;
18997;SDS011;9632;51.018;4.284;2023-02-03T06:47:40;5.38;;;0.80;;
18997;SDS011;9632;51.018;4.284;2023-02-03T06:50:07;7.78;;;1.00;;
18997;SDS011;9632;51.018;4.284;2023-02-03T06:52:34;7.68;;;0.90;;
18997;SDS011;9632;51.018;4.284;2023-02-03T06:54:59;7.45;;;0.98;;
18997;SDS011;9632;51.018;4.284;2023-02-03T06:57:25;5.82;;;0.80;;
18997;SDS011;9632;51.018;4.284;2023-02-03T06:59:51;4.97;;;1.15;;
18997;SDS011;9632;51.018;4.284;2023-02-03T07:02:16;6.15;;;0.80;;
18997;SDS011;9632;51.018;4.284;2023-02-03T07:04:42;7.95;;;1.10;;
18997;SDS011;9632;51.018;4.284;2023-02-03T07:07:09;8.02;;;1.00;;
18997;SDS011;9632;51.018;4.284;2023-02-03T07:09:36;7.80;;;1.00;;
18997;SDS011;9632;51.018;4.284;2023-02-03T07:12:02;7.05;;;1.27;;
18997;SDS011;9632;51.018;4.284;2023-02-03T07:14:28;8.77;;;1.10;;
18997;SDS011;9632;51.018;4.284;2023-02-03T07:16:55;8.32;;;1.02;;
18997;SDS011;9632;51.018;4.284;2023-02-03T07:19:20;9.25;;;1.33;;
18997;SDS011;9632;51.018;4.284;2023-02-03T07:21:46;7.13;;;1.10;;
18997;SDS011;9632;51.018;4.284;2023-02-03T07:24:12;6.15;;;1.17;;
18997;SDS011;9632;51.018;4.284;2023-02-03T07:26:38;5.15;;;0.90;;
18997;SDS011;9632;51.018;4.284;2023-02-03T07:29:04;4.22;;;0.88;;
18997;SDS011;9632;51.018;4.284;2023-02-03T07:31:30;9.50;;;1.17;;
18997;SDS011;9632;51.018;4.284;2023-02-03T07:33:56;5.10;;;0.90;;
18997;SDS011;9632;51.018;4.284;2023-02-03T07:36:22;7.30;;;1.40;;
18997;SDS011;9632;51.018;4.284;2023-02-03T07:38:48;8.48;;;1.15;;
18997;SDS011;9632;51.018;4.284;2023-02-03T07:41:14;7.47;;;1.10;;
18997;SDS011;9632;51.018;4.284;2023-02-03T07:43:40;6.10;;;1.10;;
18997;SDS011;9632;51.018;4.284;2023-02-03T07:46:06;8.40;;;1.20;;
18997;SDS011;9632;51.018;4.284;2023-02-03T07:48:32;6.32;;;1.20;;
18997;SDS011;9632;51.018;4.284;2023-02-03T07:50:57;7.28;;;1.20;;
18997;SDS011;9632;51.018;4.284;2023-02-03T07:53:23;5.50;;;1.00;;
18997;SDS011;9632;51.018;4.284;2023-02-03T07:55:49;4.78;;;1.00;;
18997;SDS011;9632;51.018;4.284;2023-02-03T07:58:14;7.57;;;1.13;;
18997;SDS011;9632;51.018;4.284;2023-02-03T08:00:41;7.80;;;1.45;;
18997;SDS011;9632;51.018;4.284;2023-02-03T08:03:07;8.52;;;1.27;;
18997;SDS011;9632;51.018;4.284;2023-02-03T08:05:32;5.50;;;1.05;;
18997;SDS011;9632;51.018;4.284;2023-02-03T08:07:58;7.53;;;1.35;;
18997;SDS011;9632;51.018;4.284;2023-02-03T08:10:24;7.03;;;1.25;;
18997;SDS011;9632;51.018;4.284;2023-02-03T08:12:53;13.35;;;1.23;;
18997;SDS011;9632;51.018;4.284;2023-02-03T08:15:19;9.23;;;1.35;;
18997;SDS011;9632;51.018;4.284;2023-02-03T08:17:45;6.15;;;1.42;;
18997;SDS011;9632;51.018;4.284;2023-02-03T08:20:12;7.68;;;1.17;;
18997;SDS011;9632;51.018;4.284;2023-02-03T08:22:38;6.65;;;1.52;;
18997;SDS011;9632;51.018;4.284;2023-02-03T08:25:04;9.48;;;1.38;;
18997;SDS011;9632;51.018;4.284;2023-02-03T08:27:30;7.15;;;1.10;;
18997;SDS011;9632;51.018;4.284;2023-02-03T08:29:56;6.97;;;1.25;;
18997;SDS011;9632;51.018;4.284;2023-02-03T08:32:23;8.10;;;1.38;;
18997;SDS011;9632;51.018;4.284;2023-02-03T08:34:49;6.57;;;1.05;;
18997;SDS011;9632;51.018;4.284;2023-02-03T08:37:16;5.78;;;1.33;;
18997;SDS011;9632;51.018;4.284;2023-02-03T08:39:43;8.45;;;1.50;;
18997;SDS011;9632;51.018;4.284;2023-02-03T08:42:09;4.85;;;1.10;;
18997;SDS011;9632;51.018;4.284;2023-02-03T08:44:35;5.55;;;1.10;;
18997;SDS011;9632;51.018;4.284;2023-02-03T08:47:03;3.95;;;1.00;;
18997;SDS011;9632;51.018;4.284;2023-02-03T08:49:29;7.60;;;1.08;;
18997;SDS011;9632;51.018;4.284;2023-02-03T08:51:56;6.32;;;1.48;;
18997;SDS011;9632;51.018;4.284;2023-02-03T08:54:23;12.88;;;1.60;;
18997;SDS011;9632;51.018;4.284;2023-02-03T08:56:49;9.50;;;1.52;;
18997;SDS011;9632;51.018;4.284;2023-02-03T08:59:15;8.07;;;1.25;;
18997;SDS011;9632;51.018;4.284;2023-02-03T09:01:41;8.63;;;1.38;;
18997;SDS011;9632;51.018;4.284;2023-02-03T09:04:09;8.98;;;1.27;;
18997;SDS011;9632;51.018;4.284;2023-02-03T09:06:36;5.30;;;0.98;;
18997;SDS011;9632;51.018;4.284;2023-02-03T09:09:02;8.45;;;1.10;;
18997;SDS011;9632;51.018;4.284;2023-02-03T09:11:28;6.75;;;0.95;;
18997;SDS011;9632;51.018;4.284;2023-02-03T09:13:54;7.55;;;1.17;;
18997;SDS011;9632;51.018;4.284;2023-02-03T09:16:22;7.60;;;1.40;;
18997;SDS011;9632;51.018;4.284;2023-02-03T09:18:49;6.90;;;1.50;;
18997;SDS011;9632;51.018;4.284;2023-02-03T09:21:15;9.25;;;1.73;;
18997;SDS011;9632;51.018;4.284;2023-02-03T09:23:41;10.90;;;1.75;;
18997;SDS011;9632;51.018;4.284;2023-02-03T09:26:08;9.07;;;1.58;;
18997;SDS011;9632;51.018;4.284;2023-02-03T09:28:36;6.93;;;1.80;;
18997;SDS011;9632;51.018;4.284;2023-02-03T09:31:12;5.75;;;1.75;;
18997;SDS011;9632;51.018;4.284;2023-02-03T09:33:41;5.63;;;1.73;;
18997;SDS011;9632;51.018;4.284;2023-02-03T09:36:07;6.53;;;1.73;;
18997;SDS011;9632;51.018;4.284;2023-02-03T09:38:34;7.70;;;1.95;;
18997;SDS011;9632;51.018;4.284;2023-02-03T09:43:40;3.92;;;1.38;;
18997;SDS011;9632;51.018;4.284;2023-02-03T09:46:20;5.45;;;1.20;;
18997;SDS011;9632;51.018;4.284;2023-02-03T09:48:49;3.80;;;1.20;;
18997;SDS011;9632;51.018;4.284;2023-02-03T09:51:51;4.13;;;1.23;;
18997;SDS011;9632;51.018;4.284;2023-02-03T09:54:35;9.02;;;1.77;;
18997;SDS011;9632;51.018;4.284;2023-02-03T09:57:11;12.13;;;1.70;;
18997;SDS011;9632;51.018;4.284;2023-02-03T09:59:56;9.27;;;1.80;;
18997;SDS011;9632;51.018;4.284;2023-02-03T10:02:36;12.20;;;1.80;;
18997;SDS011;9632;51.018;4.284;2023-02-03T10:05:19;6.68;;;1.70;;
18997;SDS011;9632;51.018;4.284;2023-02-03T10:08:11;6.80;;;2.05;;
18997;SDS011;9632;51.018;4.284;2023-02-03T10:11:17;9.45;;;1.88;;
18997;SDS011;9632;51.018;4.284;2023-02-03T10:19:52;8.85;;;2.22;;
18997;SDS011;9632;51.018;4.284;2023-02-03T10:22:29;9.93;;;1.90;;
18997;SDS011;9632;51.018;4.284;2023-02-03T10:25:03;9.85;;;1.98;;
18997;SDS011;9632;51.018;4.284;2023-02-03T10:27:51;9.70;;;1.92;;
18997;SDS011;9632;51.018;4.284;2023-02-03T10:30:21;7.18;;;1.70;;
18997;SDS011;9632;51.018;4.284;2023-02-03T10:33:10;7.43;;;1.88;;
18997;SDS011;9632;51.018;4.284;2023-02-03T10:35:47;5.63;;;1.60;;
18997;SDS011;9632;51.018;4.284;2023-02-03T10:38:51;7.60;;;1.88;;
18997;SDS011;9632;51.018;4.284;2023-02-03T10:41:20;5.78;;;1.50;;
18997;SDS011;9632;51.018;4.284;2023-02-03T10:43:48;9.10;;;1.70;;
18997;SDS011;9632;51.018;4.284;2023-02-03T10:46:32;9.13;;;1.88;;
18997;SDS011;9632;51.018;4.284;2023-02-03T10:48:59;8.13;;;1.85;;
18997;SDS011;9632;51.018;4.284;2023-02-03T10:51:29;5.18;;;1.90;;
18997;SDS011;9632;51.018;4.284;2023-02-03T10:54:28;9.88;;;1.65;;
18997;SDS011;9632;51.018;4.284;2023-02-03T10:57:05;10.27;;;1.88;;
18997;SDS011;9632;51.018;4.284;2023-02-03T10:59:41;7.32;;;1.70;;
18997;SDS011;9632;51.018;4.284;2023-02-03T11:02:10;10.55;;;2.20;;
18997;SDS011;9632;51.018;4.284;2023-02-03T11:07:40;8.55;;;1.92;;
18997;SDS011;9632;51.018;4.284;2023-02-03T11:10:26;9.55;;;1.83;;
18997;SDS011;9632;51.018;4.284;2023-02-03T11:15:54;10.82;;;2.53;;
18997;SDS011;9632;51.018;4.284;2023-02-03T11:18:34;12.30;;;1.95;;
18997;SDS011;9632;51.018;4.284;2023-02-03T11:21:13;7.53;;;1.75;;
18997;SDS011;9632;51.018;4.284;2023-02-03T11:23:52;10.25;;;2.00;;
18997;SDS011;9632;51.018;4.284;2023-02-03T11:26:21;8.30;;;2.05;;
18997;SDS011;9632;51.018;4.284;2023-02-03T11:28:51;11.35;;;2.13;;
18997;SDS011;9632;51.018;4.284;2023-02-03T11:31:24;8.55;;;1.98;;
18997;SDS011;9632;51.018;4.284;2023-02-03T11:33:56;6.95;;;1.85;;
18997;SDS011;9632;51.018;4.284;2023-02-03T11:36:30;5.70;;;1.73;;
18997;SDS011;9632;51.018;4.284;2023-02-03T11:39:07;8.63;;;2.10;;
18997;SDS011;9632;51.018;4.284;2023-02-03T11:41:36;11.48;;;2.55;;
18997;SDS011;9632;51.018;4.284;2023-02-03T11:44:10;9.10;;;2.17;;
18997;SDS011;9632;51.018;4.284;2023-02-03T11:46:39;7.25;;;2.28;;
18997;SDS011;9632;51.018;4.284;2023-02-03T11:49:10;11.65;;;1.90;;
18997;SDS011;9632;51.018;4.284;2023-02-03T11:54:39;7.28;;;1.98;;
18997;SDS011;9632;51.018;4.284;2023-02-03T12:05:45;9.35;;;1.58;;
18997;SDS011;9632;51.018;4.284;2023-02-03T12:11:28;7.95;;;1.75;;
18997;SDS011;9632;51.018;4.284;2023-02-03T12:14:02;8.20;;;1.60;;
18997;SDS011;9632;51.018;4.284;2023-02-03T12:19:11;9.20;;;1.63;;
18997;SDS011;9632;51.018;4.284;2023-02-03T12:27:39;7.75;;;1.83;;
18997;SDS011;9632;51.018;4.284;2023-02-03T12:30:17;10.77;;;1.27;;
18997;SDS011;9632;51.018;4.284;2023-02-03T12:32:56;4.95;;;1.42;;
18997;SDS011;9632;51.018;4.284;2023-02-03T12:35:26;5.78;;;1.50;;
18997;SDS011;9632;51.018;4.284;2023-02-03T12:38:02;8.30;;;1.50;;
18997;SDS011;9632;51.018;4.284;2023-02-03T12:40:41;6.72;;;1.20;;
18997;SDS011;9632;51.018;4.284;2023-02-03T12:45:51;6.38;;;1.00;;
18997;SDS011;9632;51.018;4.284;2023-02-03T12:48:22;7.75;;;1.27;;
18997;SDS011;9632;51.018;4.284;2023-02-03T12:50:55;6.40;;;1.10;;
18997;SDS011;9632;51.018;4.284;2023-02-03T12:56:07;5.78;;;1.15;;
18997;SDS011;9632;51.018;4.284;2023-02-03T12:58:54;5.22;;;1.15;;
18997;SDS011;9632;51.018;4.284;2023-02-03T13:01:25;7.05;;;0.90;;
18997;SDS011;9632;51.018;4.284;2023-02-03T13:15:18;4.68;;;1.13;;
18997;SDS011;9632;51.018;4.284;2023-02-03T13:20:45;4.40;;;1.15;;
18997;SDS011;9632;51.018;4.284;2023-02-03T13:23:12;7.43;;;1.10;;
18997;SDS011;9632;51.018;4.284;2023-02-03T13:36:44;9.35;;;1.50;;
18997;SDS011;9632;51.018;4.284;2023-02-03T13:42:22;10.20;;;1.27;;
18997;SDS011;9632;51.018;4.284;2023-02-03T13:45:14;6.97;;;1.17;;
18997;SDS011;9632;51.018;4.284;2023-02-03T13:47:46;4.55;;;1.15;;
18997;SDS011;9632;51.018;4.284;2023-02-03T13:50:20;4.18;;;1.10;;
18997;SDS011;9632;51.018;4.284;2023-02-03T13:52:53;6.50;;;1.35;;
18997;SDS011;9632;51.018;4.284;2023-02-03T13:55:24;5.63;;;1.17;;
18997;SDS011;9632;51.018;4.284;2023-02-03T13:57:57;5.30;;;1.10;;
18997;SDS011;9632;51.018;4.284;2023-02-03T14:05:48;7.30;;;1.30;;
18997;SDS011;9632;51.018;4.284;2023-02-03T14:16:43;6.75;;;1.55;;
18997;SDS011;9632;51.018;4.284;2023-02-03T14:21:55;9.77;;;1.50;;
18997;SDS011;9632;51.018;4.284;2023-02-03T14:24:44;10.63;;;1.55;;
18997;SDS011;9632;51.018;4.284;2023-02-03T14:27:25;6.93;;;1.25;;
18997;SDS011;9632;51.018;4.284;2023-02-03T14:30:03;7.45;;;1.55;;
18997;SDS011;9632;51.018;4.284;2023-02-03T14:32:53;5.95;;;1.48;;
18997;SDS011;9632;51.018;4.284;2023-02-03T14:35:42;8.40;;;1.40;;
18997;SDS011;9632;51.018;4.284;2023-02-03T14:38:12;3.83;;;1.35;;
18997;SDS011;9632;51.018;4.284;2023-02-03T14:46:11;7.65;;;1.30;;
18997;SDS011;9632;51.018;4.284;2023-02-03T14:49:13;4.95;;;1.17;;
18997;SDS011;9632;51.018;4.284;2023-02-03T14:59:58;8.43;;;1.80;;
18997;SDS011;9632;51.018;4.284;2023-02-03T15:02:31;5.88;;;1.58;;
18997;SDS011;9632;51.018;4.284;2023-02-03T15:07:48;7.50;;;1.67;;
18997;SDS011;9632;51.018;4.284;2023-02-03T15:12:48;6.90;;;1.55;;
18997;SDS011;9632;51.018;4.284;2023-02-03T15:15:20;5.22;;;1.70;;
18997;SDS011;9632;51.018;4.284;2023-02-03T15:17:51;10.27;;;1.60;;
18997;SDS011;9632;51.018;4.284;2023-02-03T15:20:31;6.25;;;1.55;;
18997;SDS011;9632;51.018;4.284;2023-02-03T15:23:15;9.27;;;1.83;;
18997;SDS011;9632;51.018;4.284;2023-02-03T15:25:51;6.40;;;1.55;;
18997;SDS011;9632;51.018;4.284;2023-02-03T15:28:19;10.00;;;2.03;;
18997;SDS011;9632;51.018;4.284;2023-02-03T15:30:46;6.28;;;1.75;;
18997;SDS011;9632;51.018;4.284;2023-02-03T15:33:21;7.65;;;1.80;;
18997;SDS011;9632;51.018;4.284;2023-02-03T15:35:49;6.68;;;1.60;;
18997;SDS011;9632;51.018;4.284;2023-02-03T15:38:22;8.88;;;1.92;;
18997;SDS011;9632;51.018;4.284;2023-02-03T15:40:53;6.72;;;1.73;;
18997;SDS011;9632;51.018;4.284;2023-02-03T15:53:36;7.55;;;2.17;;
18997;SDS011;9632;51.018;4.284;2023-02-03T15:56:28;7.63;;;1.85;;
18997;SDS011;9632;51.018;4.284;2023-02-03T15:59:03;10.70;;;2.40;;
18997;SDS011;9632;51.018;4.284;2023-02-03T16:01:30;5.43;;;1.80;;
18997;SDS011;9632;51.018;4.284;2023-02-03T16:03:56;12.35;;;2.10;;
18997;SDS011;9632;51.018;4.284;2023-02-03T16:06:24;8.15;;;2.25;;
18997;SDS011;9632;51.018;4.284;2023-02-03T16:09:04;7.07;;;1.90;;
18997;SDS011;9632;51.018;4.284;2023-02-03T16:11:32;10.52;;;2.42;;
18997;SDS011;9632;51.018;4.284;2023-02-03T16:14:01;10.65;;;2.20;;
18997;SDS011;9632;51.018;4.284;2023-02-03T16:19:13;7.25;;;1.90;;
18997;SDS011;9632;51.018;4.284;2023-02-03T16:35:56;11.77;;;2.58;;
18997;SDS011;9632;51.018;4.284;2023-02-03T16:38:44;7.57;;;2.33;;
18997;SDS011;9632;51.018;4.284;2023-02-03T16:41:29;10.38;;;2.08;;
18997;SDS011;9632;51.018;4.284;2023-02-03T16:44:14;11.00;;;2.45;;
18997;SDS011;9632;51.018;4.284;2023-02-03T16:46:58;9.85;;;2.42;;
18997;SDS011;9632;51.018;4.284;2023-02-03T16:49:43;14.77;;;2.72;;
18997;SDS011;9632;51.018;4.284;2023-02-03T16:52:27;12.60;;;2.92;;
18997;SDS011;9632;51.018;4.284;2023-02-03T16:54:53;9.65;;;2.90;;
18997;SDS011;9632;51.018;4.284;2023-02-03T16:57:19;8.57;;;2.42;;
18997;SDS011;9632;51.018;4.284;2023-02-03T16:59:44;11.30;;;2.92;;
18997;SDS011;9632;51.018;4.284;2023-02-03T17:02:10;7.25;;;2.28;;
18997;SDS011;9632;51.018;4.284;2023-02-03T17:04:36;5.50;;;2.20;;
18997;SDS011;9632;51.018;4.284;2023-02-03T17:07:01;10.32;;;3.05;;
18997;SDS011;9632;51.018;4.284;2023-02-03T17:09:29;10.13;;;3.05;;
18997;SDS011;9632;51.018;4.284;2023-02-03T17:12:02;5.53;;;2.10;;
18997;SDS011;9632;51.018;4.284;2023-02-03T17:14:28;10.10;;;2.50;;
18997;SDS011;9632;51.018;4.284;2023-02-03T17:16:55;10.80;;;2.50;;
18997;SDS011;9632;51.018;4.284;2023-02-03T17:19:20;9.73;;;2.22;;
18997;SDS011;9632;51.018;4.284;2023-02-03T17:21:46;6.20;;;2.00;;
18997;SDS011;9632;51.018;4.284;2023-02-03T17:24:12;5.90;;;1.95;;
18997;SDS011;9632;51.018;4.284;2023-02-03T17:26:38;7.10;;;2.13;;
18997;SDS011;9632;51.018;4.284;2023-02-03T17:29:04;5.18;;;1.98;;
18997;SDS011;9632;51.018;4.284;2023-02-03T17:31:30;6.97;;;2.17;;
18997;SDS011;9632;51.018;4.284;2023-02-03T17:33:56;8.55;;;2.55;;
18997;SDS011;9632;51.018;4.284;2023-02-03T17:36:22;9.52;;;2.45;;
18997;SDS011;9632;51.018;4.284;2023-02-03T17:38:50;10.25;;;2.63;;
18997;SDS011;9632;51.018;4.284;2023-02-03T17:41:20;8.60;;;2.50;;
18997;SDS011;9632;51.018;4.284;2023-02-03T17:43:46;10.63;;;2.78;;
18997;SDS011;9632;51.018;4.284;2023-02-03T17:46:14;9.98;;;2.78;;
18997;SDS011;9632;51.018;4.284;2023-02-03T17:48:41;11.60;;;2.50;;
18997;SDS011;9632;51.018;4.284;2023-02-03T17:51:11;7.68;;;2.55;;
18997;SDS011;9632;51.018;4.284;2023-02-03T17:53:44;8.60;;;2.58;;
18997;SDS011;9632;51.018;4.284;2023-02-03T17:56:12;8.07;;;2.70;;
18997;SDS011;9632;51.018;4.284;2023-02-03T17:58:40;10.45;;;2.60;;
18997;SDS011;9632;51.018;4.284;2023-02-03T18:01:10;8.60;;;2.58;;
18997;SDS011;9632;51.018;4.284;2023-02-03T18:03:43;11.93;;;3.05;;